createdAt,value
2022-09-20T00:01:49.363Z,83.17
2022-09-20T00:04:18.127Z,83.01
2022-09-20T00:06:46.894Z,82.93
2022-09-20T00:09:15.562Z,83.30
2022-09-20T00:11:45.852Z,83.34
2022-09-20T00:14:14.583Z,83.27
2022-09-20T00:16:43.384Z,83.53
2022-09-20T00:19:19.489Z,83.44
2022-09-20T00:21:48.651Z,83.50
2022-09-20T00:24:17.443Z,83.42
2022-09-20T00:26:46.128Z,83.31
2022-09-20T00:29:17.968Z,83.48
2022-09-20T00:31:47.746Z,83.68
2022-09-20T00:34:35.087Z,83.36
2022-09-20T00:37:03.872Z,83.65
2022-09-20T00:39:32.646Z,83.19
2022-09-20T00:42:01.319Z,83.42
2022-09-20T00:44:54.596Z,83.26
2022-09-20T00:47:36.078Z,83.35
2022-09-20T00:50:24.554Z,83.02
2022-09-20T00:53:03.664Z,82.97
2022-09-20T00:55:34.598Z,83.12
2022-09-20T00:58:03.825Z,83.21
2022-09-20T01:00:33.852Z,83.13
2022-09-20T01:03:08.712Z,82.83
2022-09-20T01:05:40.411Z,83.17
2022-09-20T01:08:10.931Z,83.49
2022-09-20T01:10:40.105Z,83.30
2022-09-20T01:13:08.967Z,83.48
2022-09-20T01:15:40.372Z,83.21
2022-09-20T01:18:10.946Z,83.22
2022-09-20T01:20:42.751Z,82.94
2022-09-20T01:23:17.463Z,82.87
2022-09-20T01:26:04.449Z,82.70
2022-09-20T01:28:33.675Z,82.93
2022-09-20T01:31:29.299Z,82.60
2022-09-20T01:34:12.338Z,82.64
2022-09-20T01:36:51.553Z,82.72
2022-09-20T01:39:35.003Z,82.27
2022-09-20T01:42:08.372Z,82.72
2022-09-20T01:44:42.991Z,82.66
2022-09-20T01:47:43.737Z,82.66
2022-09-20T01:50:45.480Z,83.02
2022-09-20T01:54:08.346Z,82.58
2022-09-20T01:57:01.547Z,82.39
2022-09-20T01:59:49.579Z,80.97
2022-09-20T02:02:40.959Z,79.15
2022-09-20T02:05:34.604Z,78.51
2022-09-20T02:08:21.361Z,78.74
2022-09-20T02:11:22.265Z,78.71
2022-09-20T02:14:12.843Z,79.25
2022-09-20T02:17:04.776Z,78.98
2022-09-20T02:19:55.184Z,79.13
2022-09-20T02:22:30.582Z,79.31
2022-09-20T02:25:13.170Z,79.54
2022-09-20T02:27:44.740Z,79.56
2022-09-20T02:30:38.258Z,79.45
2022-09-20T02:33:28.081Z,78.75
2022-09-20T02:36:05.677Z,78.76
2022-09-20T02:39:06.536Z,79.48
2022-09-20T02:42:05.872Z,79.33
2022-09-20T02:45:01.859Z,78.73
2022-09-20T02:47:38.538Z,79.30
2022-09-20T02:50:38.986Z,79.24
2022-09-20T02:53:32.567Z,78.99
2022-09-20T02:56:13.078Z,78.81
2022-09-20T02:58:50.520Z,78.39
2022-09-20T03:01:25.798Z,77.61
2022-09-20T03:04:27.023Z,76.93
2022-09-20T03:07:33.934Z,77.36
2022-09-20T03:10:34.931Z,76.95
2022-09-20T03:13:27.988Z,77.10
2022-09-20T03:16:03.500Z,76.74
2022-09-20T03:18:48.064Z,76.89
2022-09-20T03:21:35.244Z,76.50
2022-09-20T03:24:09.743Z,76.39
2022-09-20T03:26:44.620Z,76.19
2022-09-20T03:29:50.293Z,76.27
2022-09-20T03:32:27.793Z,75.61
2022-09-20T03:35:22.996Z,75.51
2022-09-20T03:38:04.198Z,75.04
2022-09-20T03:40:53.595Z,75.08
2022-09-20T03:43:50.165Z,74.10
2022-09-20T03:46:29.417Z,73.22
2022-09-20T03:49:22.379Z,72.82
2022-09-20T03:52:18.646Z,72.37
2022-09-20T03:55:05.677Z,72.00
2022-09-20T03:58:00.285Z,71.91
2022-09-20T04:01:00.501Z,71.23
2022-09-20T04:03:32.465Z,70.74
2022-09-20T04:06:37.835Z,70.84
2022-09-20T04:09:43.913Z,72.09
2022-09-20T04:12:45.535Z,70.86
2022-09-20T04:15:16.071Z,70.25
2022-09-20T04:17:56.874Z,71.48
2022-09-20T04:20:51.332Z,71.63
2022-09-20T04:23:38.384Z,71.49
2022-09-20T04:26:07.404Z,71.48
2022-09-20T04:28:49.239Z,72.32
2022-09-20T04:31:43.505Z,73.03
2022-09-20T04:34:23.854Z,72.87
2022-09-20T04:37:06.722Z,72.81
2022-09-20T04:39:52.998Z,73.04
2022-09-20T04:42:39.671Z,73.10
2022-09-20T04:45:29.387Z,73.50
2022-09-20T04:48:19.572Z,72.67
2022-09-20T04:50:48.214Z,72.66
2022-09-20T04:53:30.922Z,73.09
2022-09-20T04:56:25.396Z,73.51
2022-09-20T04:59:08.351Z,74.01
2022-09-20T05:02:18.108Z,73.70
2022-09-20T05:05:16.612Z,73.34
2022-09-20T05:08:03.499Z,73.16
2022-09-20T05:10:41.705Z,73.26
2022-09-20T05:13:37.124Z,74.23
2022-09-20T05:16:51.005Z,74.81
2022-09-20T05:19:34.000Z,74.93
2022-09-20T05:22:08.605Z,75.45
2022-09-20T05:24:55.564Z,74.87
2022-09-20T05:27:44.222Z,75.19
2022-09-20T05:30:56.111Z,75.78
2022-09-20T05:33:52.695Z,76.05
2022-09-20T05:36:21.158Z,76.53
2022-09-20T05:39:05.801Z,76.42
2022-09-20T05:42:02.285Z,76.81
2022-09-20T05:44:49.232Z,76.90
2022-09-20T05:47:19.864Z,76.74
2022-09-20T05:50:09.990Z,77.32
2022-09-20T05:52:54.732Z,77.06
2022-09-20T05:55:54.515Z,77.44
2022-09-20T05:58:39.018Z,77.28
2022-09-20T06:01:34.491Z,77.66
2022-09-20T06:04:27.684Z,78.40
2022-09-20T06:07:23.591Z,78.49
2022-09-20T06:10:01.036Z,78.35
2022-09-20T06:12:39.806Z,78.68
2022-09-20T06:15:24.782Z,79.21
2022-09-20T06:18:17.479Z,79.27
2022-09-20T06:21:27.942Z,79.56
2022-09-20T06:24:01.988Z,79.74
2022-09-20T06:26:37.764Z,80.34
2022-09-20T06:29:14.638Z,79.92
2022-09-20T06:31:43.372Z,77.78
2022-09-20T06:34:15.551Z,76.73
2022-09-20T06:37:09.568Z,75.49
2022-09-20T06:40:35.808Z,71.91
2022-09-20T06:43:05.623Z,69.00
2022-09-20T06:45:34.551Z,67.80
2022-09-20T06:48:03.280Z,68.37
2022-09-20T06:50:33.311Z,70.47
2022-09-20T06:53:02.875Z,70.67
2022-09-20T06:55:43.741Z,70.57
2022-09-20T06:58:12.500Z,69.76
2022-09-20T07:00:41.854Z,67.62
2022-09-20T07:03:13.245Z,67.59
2022-09-20T07:05:42.162Z,64.83
2022-09-20T07:08:11.043Z,62.05
2022-09-20T07:10:39.924Z,62.26
2022-09-20T07:13:08.679Z,62.54
2022-09-20T07:15:38.595Z,64.89
2022-09-20T07:18:08.473Z,65.32
2022-09-20T07:20:37.245Z,66.75
2022-09-20T07:23:06.007Z,68.13
2022-09-20T07:25:35.162Z,69.29
2022-09-20T07:28:04.015Z,67.91
2022-09-20T07:30:32.810Z,67.59
2022-09-20T07:33:01.458Z,67.36
2022-09-20T07:35:30.298Z,68.10
2022-09-20T07:37:59.699Z,68.54
2022-09-20T07:40:28.479Z,69.49
2022-09-20T07:42:58.584Z,70.37
2022-09-20T07:45:27.379Z,71.35
2022-09-20T07:47:58.950Z,72.42
2022-09-20T07:50:27.710Z,72.99
2022-09-20T07:52:58.228Z,73.33
2022-09-20T07:55:27.384Z,73.62
2022-09-20T07:57:56.804Z,74.15
2022-09-20T08:00:27.273Z,74.04
2022-09-20T08:03:00.056Z,74.62
2022-09-20T08:05:28.824Z,74.72
2022-09-20T08:07:57.615Z,75.13
2022-09-20T08:10:27.435Z,76.33
2022-09-20T08:15:44.963Z,70.65
2022-09-20T08:18:13.983Z,68.79
2022-09-20T08:20:42.663Z,68.20
2022-09-20T08:23:23.409Z,68.69
2022-09-20T08:25:52.701Z,67.86
2022-09-20T08:28:21.639Z,66.63
2022-09-20T08:30:50.341Z,66.78
2022-09-20T08:33:19.010Z,67.42
2022-09-20T08:35:50.768Z,68.33
2022-09-20T08:41:13.788Z,69.32
2022-09-20T08:43:53.997Z,70.21
2022-09-20T08:46:30.069Z,69.97
2022-09-20T08:49:00.527Z,69.44
2022-09-20T08:51:33.909Z,68.66
2022-09-20T08:54:05.309Z,68.13
2022-09-20T08:56:38.571Z,68.25
2022-09-20T08:59:12.687Z,68.29
2022-09-20T09:01:42.313Z,67.27
2022-09-20T09:04:16.439Z,66.84
2022-09-20T09:06:47.058Z,67.31
2022-09-20T09:09:27.314Z,67.72
2022-09-20T09:11:57.570Z,67.37
2022-09-20T09:14:51.617Z,66.53
2022-09-20T09:17:28.246Z,66.12
2022-09-20T09:19:59.726Z,65.21
2022-09-20T09:22:43.464Z,65.44
2022-09-20T09:25:17.820Z,64.44
2022-09-20T09:28:00.826Z,63.68
2022-09-20T09:30:41.416Z,63.23
2022-09-20T09:33:27.283Z,63.15
2022-09-20T09:36:03.202Z,62.68
2022-09-20T09:38:34.509Z,62.37
2022-09-20T09:41:06.318Z,62.45
2022-09-20T09:43:37.879Z,62.46
2022-09-20T09:46:24.281Z,63.08
2022-09-20T09:49:10.362Z,62.85
2022-09-20T09:51:43.804Z,62.12
2022-09-20T09:54:20.277Z,62.08
2022-09-20T09:56:58.333Z,62.41
2022-09-20T09:59:42.321Z,62.25
2022-09-20T10:02:37.801Z,61.95
2022-09-20T10:05:45.115Z,61.39
2022-09-20T10:08:23.932Z,60.93
2022-09-20T10:11:30.774Z,61.66
2022-09-20T10:14:27.252Z,61.88
2022-09-20T10:17:24.176Z,61.54
2022-09-20T10:20:25.887Z,61.81
2022-09-20T10:23:44.999Z,61.88
2022-09-20T10:26:32.927Z,62.42
2022-09-20T10:29:26.806Z,62.25
2022-09-20T10:32:13.717Z,62.36
2022-09-20T10:35:02.504Z,62.75
2022-09-20T10:37:40.162Z,62.89
2022-09-20T10:40:17.427Z,63.12
2022-09-20T10:43:15.456Z,63.26
2022-09-20T10:46:30.841Z,63.33
2022-09-20T10:49:19.838Z,63.37
2022-09-20T10:51:54.734Z,63.54
2022-09-20T10:55:04.330Z,63.85
2022-09-20T10:57:49.592Z,63.90
2022-09-20T11:00:27.579Z,63.93
2022-09-20T11:03:14.778Z,64.15
2022-09-20T11:05:58.258Z,64.02
2022-09-20T11:08:35.370Z,64.15
2022-09-20T11:11:11.041Z,63.82
2022-09-20T11:13:48.314Z,63.81
2022-09-20T11:16:28.362Z,64.05
2022-09-20T11:19:27.529Z,64.21
2022-09-20T11:22:19.454Z,64.17
2022-09-20T11:24:54.667Z,64.01
2022-09-20T11:27:30.705Z,64.02
2022-09-20T11:30:15.642Z,64.06
2022-09-20T11:32:49.841Z,64.32
2022-09-20T11:35:30.041Z,64.33
2022-09-20T11:38:04.707Z,64.16
2022-09-20T11:40:39.272Z,64.06
2022-09-20T11:43:10.492Z,64.17
2022-09-20T11:45:43.428Z,64.24
2022-09-20T11:48:38.422Z,64.09
2022-09-20T11:51:31.994Z,64.53
2022-09-20T11:54:37.404Z,64.50
2022-09-20T11:57:09.309Z,64.56
2022-09-20T11:59:41.608Z,64.45
2022-09-20T12:02:21.923Z,64.70
2022-09-20T12:04:53.918Z,64.42
2022-09-20T12:07:27.766Z,64.38
2022-09-20T12:10:01.089Z,64.69
2022-09-20T12:12:47.244Z,64.40
2022-09-20T12:15:33.143Z,64.43
2022-09-20T12:18:05.490Z,64.90
2022-09-20T12:20:39.180Z,64.63
2022-09-20T12:23:41.831Z,64.69
2022-09-20T12:26:11.599Z,64.63
2022-09-20T12:28:46.216Z,64.81
2022-09-20T12:31:26.868Z,64.80
2022-09-20T12:34:10.957Z,64.68
2022-09-20T12:36:54.319Z,65.22
2022-09-20T12:39:30.200Z,65.43
2022-09-20T12:42:04.192Z,65.30
2022-09-20T12:45:00.042Z,65.42
2022-09-20T12:47:35.783Z,65.46
2022-09-20T12:50:33.495Z,65.57
2022-09-20T12:53:09.604Z,65.61
2022-09-20T12:55:46.273Z,65.60
2022-09-20T12:58:15.078Z,65.50
2022-09-20T13:01:14.586Z,65.65
2022-09-20T13:03:46.440Z,65.66
2022-09-20T13:06:16.215Z,65.64
2022-09-20T13:08:57.616Z,65.62
2022-09-20T13:11:35.211Z,65.61
2022-09-20T13:14:07.523Z,65.79
2022-09-20T13:16:58.276Z,65.49
2022-09-20T13:19:30.410Z,65.49
2022-09-20T13:22:20.526Z,65.84
2022-09-20T13:24:51.260Z,65.93
2022-09-20T13:27:31.497Z,65.87
2022-09-20T13:30:21.404Z,65.86
2022-09-20T13:32:52.067Z,66.49
2022-09-20T13:35:24.824Z,66.83
2022-09-20T13:38:03.439Z,66.76
2022-09-20T13:40:36.238Z,66.87
2022-09-20T13:43:28.574Z,66.92
2022-09-20T13:46:00.264Z,67.52
2022-09-20T13:48:31.132Z,67.48
2022-09-20T13:51:00.274Z,67.60
2022-09-20T13:53:41.877Z,67.44
2022-09-20T13:56:32.456Z,67.92
2022-09-20T13:59:05.920Z,67.67
2022-09-20T14:01:36.533Z,68.07
2022-09-20T14:04:15.411Z,67.64
2022-09-20T14:06:44.617Z,67.67
2022-09-20T14:09:43.472Z,68.06
2022-09-20T14:12:14.195Z,68.07
2022-09-20T14:14:43.214Z,67.61
2022-09-20T14:17:19.265Z,67.50
2022-09-20T14:19:50.791Z,67.65
2022-09-20T14:22:29.900Z,67.35
2022-09-20T14:25:05.129Z,67.37
2022-09-20T14:27:33.916Z,67.69
2022-09-20T14:30:04.411Z,67.21
2022-09-20T14:33:00.020Z,67.79
2022-09-20T14:35:29.678Z,67.58
2022-09-20T14:38:08.307Z,68.12
2022-09-20T14:40:46.250Z,68.16
2022-09-20T14:43:24.204Z,68.45
2022-09-20T14:45:56.726Z,68.79
2022-09-20T14:48:25.571Z,68.83
2022-09-20T14:51:28.335Z,68.76
2022-09-20T14:54:06.315Z,69.26
2022-09-20T14:56:39.007Z,69.85
2022-09-20T14:59:19.899Z,69.31
2022-09-20T15:02:18.162Z,69.69
2022-09-20T15:04:56.877Z,69.85
2022-09-20T15:07:25.859Z,69.86
2022-09-20T15:09:54.865Z,69.83
2022-09-20T15:12:23.724Z,70.09
2022-09-20T15:14:53.206Z,70.04
2022-09-20T15:17:22.945Z,70.11
2022-09-20T15:19:51.756Z,69.79
2022-09-20T15:22:20.506Z,70.20
2022-09-20T15:24:49.239Z,70.02
2022-09-20T15:27:18.096Z,70.67
2022-09-20T15:29:46.950Z,70.28
2022-09-20T15:32:15.885Z,70.53
2022-09-20T15:34:44.659Z,70.42
2022-09-20T15:37:13.429Z,70.62
2022-09-20T15:39:42.085Z,70.96
2022-09-20T15:42:11.665Z,70.73
2022-09-20T15:44:40.510Z,70.78
2022-09-20T15:47:11.837Z,71.23
2022-09-20T15:49:47.676Z,71.47
2022-09-20T15:52:16.798Z,71.30
2022-09-20T15:54:47.161Z,71.65
2022-09-20T15:57:16.448Z,71.68
2022-09-20T15:59:45.094Z,71.45
2022-09-20T16:02:14.779Z,71.26
2022-09-20T16:04:43.710Z,71.42
2022-09-20T16:07:12.546Z,71.19
2022-09-20T16:09:41.250Z,71.59
2022-09-20T16:12:09.886Z,71.63
2022-09-20T16:14:38.539Z,71.79
2022-09-20T16:17:07.305Z,71.26
2022-09-20T16:19:36.135Z,71.94
2022-09-20T16:22:05.494Z,71.60
2022-09-20T16:24:37.155Z,71.70
2022-09-20T16:27:08.365Z,72.04
2022-09-20T16:29:37.132Z,71.56
2022-09-20T16:32:06.015Z,71.21
2022-09-20T16:34:36.972Z,71.88
2022-09-20T16:37:17.359Z,71.87
2022-09-20T16:39:46.079Z,71.34
2022-09-20T16:42:15.946Z,71.78
2022-09-20T16:44:44.703Z,71.88
2022-09-20T16:47:21.021Z,72.77
2022-09-20T16:49:51.086Z,72.61
2022-09-20T16:52:19.963Z,72.87
2022-09-20T16:54:49.014Z,73.08
2022-09-20T16:57:17.990Z,72.58
2022-09-20T16:59:47.186Z,73.25
2022-09-20T17:02:16.444Z,72.93
2022-09-20T17:04:45.322Z,73.44
2022-09-20T17:07:14.058Z,73.44
2022-09-20T17:09:42.726Z,73.23
2022-09-20T17:12:11.640Z,73.49
2022-09-20T17:14:40.328Z,73.73
2022-09-20T17:17:10.270Z,73.96
2022-09-20T17:19:38.910Z,73.90
2022-09-20T17:22:08.466Z,74.00
2022-09-20T17:24:37.156Z,73.74
2022-09-20T17:27:07.510Z,73.23
2022-09-20T17:29:36.218Z,73.32
2022-09-20T17:32:04.948Z,73.14
2022-09-20T17:34:34.394Z,73.69
2022-09-20T17:37:04.022Z,73.25
2022-09-20T17:39:32.799Z,73.61
2022-09-20T17:42:02.630Z,73.21
2022-09-20T17:44:34.170Z,73.40
2022-09-20T17:47:03.086Z,72.92
2022-09-20T17:49:31.962Z,73.19
2022-09-20T17:52:00.852Z,73.39
2022-09-20T17:54:29.602Z,73.14
2022-09-20T17:56:58.367Z,73.79
2022-09-20T17:59:27.230Z,73.57
2022-09-20T18:01:56.789Z,73.59
2022-09-20T18:04:25.715Z,74.02
2022-09-20T18:06:56.031Z,73.97
2022-09-20T18:09:27.655Z,73.72
2022-09-20T18:11:56.902Z,73.56
2022-09-20T18:14:32.210Z,73.53
2022-09-20T18:17:04.256Z,73.15
2022-09-20T18:19:33.996Z,73.57
2022-09-20T18:22:04.032Z,73.37
2022-09-20T18:24:32.936Z,73.08
2022-09-20T18:27:01.811Z,73.03
2022-09-20T18:29:34.033Z,73.28
2022-09-20T18:32:03.479Z,72.98
2022-09-20T18:34:34.804Z,73.24
2022-09-20T18:37:05.391Z,73.42
2022-09-20T18:39:35.477Z,73.70
2022-09-20T18:42:04.647Z,73.87
2022-09-20T18:44:34.318Z,74.17
2022-09-20T18:47:06.250Z,73.56
2022-09-20T18:49:34.984Z,73.41
2022-09-20T18:52:04.746Z,73.79
2022-09-20T18:54:33.949Z,74.18
2022-09-20T18:57:03.071Z,74.36
2022-09-20T18:59:31.911Z,74.25
2022-09-20T19:02:01.549Z,74.54
2022-09-20T19:04:53.806Z,74.19
2022-09-20T19:07:28.631Z,74.48
2022-09-20T19:10:09.417Z,74.33
2022-09-20T19:12:47.568Z,74.01
2022-09-20T19:15:37.540Z,73.99
2022-09-20T19:18:27.757Z,73.73
2022-09-20T19:21:20.692Z,73.85
2022-09-20T19:24:14.055Z,73.63
2022-09-20T19:26:43.545Z,74.18
2022-09-20T19:29:19.745Z,74.36
2022-09-20T19:31:56.036Z,74.34
2022-09-20T19:34:27.825Z,73.96
2022-09-20T19:37:05.510Z,73.76
2022-09-20T19:39:43.724Z,74.22
2022-09-20T19:42:38.967Z,73.40
2022-09-20T19:45:31.822Z,73.14
2022-09-20T19:48:19.017Z,73.50
2022-09-20T19:50:52.735Z,73.32
2022-09-20T19:53:28.705Z,72.81
2022-09-20T19:56:15.967Z,73.01
2022-09-20T19:58:45.567Z,72.35
2022-09-20T20:01:15.625Z,72.35
2022-09-20T20:03:47.388Z,72.07
2022-09-20T20:06:35.359Z,71.95
2022-09-20T20:09:23.813Z,72.76
2022-09-20T20:12:01.664Z,73.10
2022-09-20T20:14:39.179Z,73.43
2022-09-20T20:17:07.814Z,74.07
2022-09-20T20:19:39.297Z,74.34
2022-09-20T20:22:32.499Z,74.68
2022-09-20T20:25:01.351Z,75.23
2022-09-20T20:27:31.928Z,75.60
2022-09-20T20:30:00.945Z,75.13
2022-09-20T20:32:29.660Z,75.53
2022-09-20T20:34:58.367Z,75.94
2022-09-20T20:37:28.736Z,75.95
2022-09-20T20:39:57.455Z,76.19
2022-09-20T20:42:27.845Z,76.44
2022-09-20T20:44:56.484Z,76.68
2022-09-20T20:47:25.207Z,77.10
2022-09-20T20:49:55.600Z,76.78
2022-09-20T20:52:24.329Z,76.80
2022-09-20T20:54:52.992Z,76.93
2022-09-20T20:57:21.670Z,77.32
2022-09-20T20:59:50.321Z,77.39
2022-09-20T21:02:20.319Z,77.35
2022-09-20T21:04:49.124Z,77.45
2022-09-20T21:07:18.632Z,77.40
2022-09-20T21:09:47.474Z,77.16
2022-09-20T21:12:16.261Z,76.82
2022-09-20T21:14:45.671Z,77.03
2022-09-20T21:17:14.475Z,77.20
2022-09-20T21:19:43.152Z,77.08
2022-09-20T21:22:11.867Z,76.95
2022-09-20T21:24:40.524Z,77.53
2022-09-20T21:27:09.628Z,77.08
2022-09-20T21:29:38.351Z,76.95
2022-09-20T21:32:07.017Z,77.19
2022-09-20T21:34:36.145Z,76.90
2022-09-20T21:37:04.956Z,77.03
2022-09-20T21:39:33.594Z,76.99
2022-09-20T21:42:05.064Z,76.70
2022-09-20T21:44:33.728Z,76.70
2022-09-20T21:47:02.406Z,76.68
2022-09-20T21:49:31.019Z,76.93
2022-09-20T21:51:59.774Z,76.49
2022-09-20T21:54:29.271Z,76.46
2022-09-20T21:56:59.837Z,76.54
2022-09-20T21:59:28.552Z,76.32
2022-09-20T22:01:59.148Z,76.24
2022-09-20T22:04:29.732Z,75.93
2022-09-20T22:06:58.964Z,75.74
2022-09-20T22:09:27.649Z,75.49
2022-09-20T22:11:56.503Z,75.59
2022-09-20T22:14:25.383Z,75.29
2022-09-20T22:16:54.254Z,75.37
2022-09-20T22:19:22.930Z,74.62
2022-09-20T22:21:52.032Z,73.68
2022-09-20T22:24:20.910Z,73.71
2022-09-20T22:26:51.594Z,73.42
2022-09-20T22:29:20.760Z,73.35
2022-09-20T22:31:50.662Z,73.92
2022-09-20T22:34:21.755Z,74.01
2022-09-20T22:36:51.021Z,74.24
2022-09-20T22:39:20.002Z,74.47
2022-09-20T22:41:48.691Z,74.20
2022-09-20T22:44:17.963Z,74.10
2022-09-20T22:46:46.704Z,74.80
2022-09-20T22:49:15.502Z,74.64
2022-09-20T22:51:44.469Z,74.68
2022-09-20T22:54:13.844Z,74.85
2022-09-20T22:56:42.990Z,75.00
2022-09-20T22:59:15.607Z,74.88
2022-09-20T23:01:49.336Z,74.80
2022-09-20T23:04:20.471Z,74.51
2022-09-20T23:06:57.240Z,74.60
2022-09-20T23:09:30.335Z,74.03
2022-09-20T23:11:59.378Z,73.91
2022-09-20T23:14:28.079Z,73.90
2022-09-20T23:16:56.909Z,73.74
2022-09-20T23:19:26.069Z,73.85
2022-09-20T23:21:54.779Z,73.45
2022-09-20T23:24:23.494Z,73.37
2022-09-20T23:26:52.594Z,73.69
2022-09-20T23:29:21.593Z,73.83
2022-09-20T23:31:50.559Z,73.79
2022-09-20T23:34:19.276Z,73.25
2022-09-20T23:36:48.098Z,72.94
2022-09-20T23:39:17.004Z,72.93
2022-09-20T23:41:50.649Z,72.65
2022-09-20T23:44:19.917Z,72.50
2022-09-20T23:46:48.601Z,72.38
2022-09-20T23:49:17.370Z,72.51
2022-09-20T23:51:46.073Z,72.50
2022-09-20T23:54:14.793Z,72.06
2022-09-20T23:56:43.545Z,72.32
2022-09-20T23:59:12.337Z,72.24
